Time;durP1;ratioP1;P1;durP2;ratioP2;P2;SDS_P1;SDS_P2;PMS_P1;PMS_P2;Temp;Humidity;BMP_temperature;BMP_pressure;BME280_temperature;BME280_humidity;BME280_pressure;Samples;Min_cycle;Max_cycle;Signal;HPM_P1;HPM_P2
2021/06/08 00:02:35;;;;;;;24.17;6.20;;;12.70;99.90;;;12.81;100.00;95463.00;2141190;57;27523;-64
2021/06/08 00:05:22;;;;;;;33.67;7.20;;;12.80;99.90;;;13.15;100.00;95469.00;2222242;57;26303;-64
2021/06/08 00:08:09;;;;;;;53.40;8.37;;;12.70;99.90;;;13.03;100.00;95462.00;2158324;57;26996;-64
2021/06/08 00:13:53;;;;;;;18.40;7.03;;;12.70;99.90;;;12.97;100.00;95438.00;2327680;53;34058;-64
2021/06/08 00:16:39;;;;;;;73.30;8.07;;;12.60;99.90;;;12.97;100.00;95465.00;2235912;55;26756;-64
2021/06/08 00:19:26;;;;;;;30.03;5.67;;;12.50;99.90;;;12.69;100.00;95462.00;2215641;55;26810;-64
2021/06/08 00:22:13;;;;;;;13.60;5.33;;;12.60;99.90;;;12.90;100.00;95468.00;2232016;55;26720;-64
2021/06/08 00:25:00;;;;;;;5.30;4.80;;;12.60;99.90;;;12.89;100.00;95463.00;2256039;55;27137;-64
2021/06/08 00:30:44;;;;;;;5.30;4.80;;;12.30;99.90;;;12.52;100.00;95437.00;2399917;55;34314;-64
2021/06/08 00:33:31;;;;;;;5.10;4.60;;;12.20;99.90;;;12.28;100.00;95465.00;2202015;55;26143;-64
2021/06/08 00:36:17;;;;;;;6.47;4.60;;;12.00;99.90;;;12.15;100.00;95461.00;2210951;56;27006;-64
2021/06/08 00:39:05;;;;;;;5.70;5.20;;;12.00;99.90;;;12.10;100.00;95463.00;2234360;56;26742;-64
2021/06/08 00:41:51;;;;;;;5.87;5.03;;;12.00;99.90;;;12.12;100.00;95462.00;2227712;56;27040;-64
2021/06/08 00:47:34;;;;;;;7.10;5.57;;;12.00;99.90;;;12.21;100.00;95432.00;2382341;54;33532;-64
2021/06/08 00:50:21;;;;;;;6.90;5.03;;;12.00;99.90;;;12.08;100.00;95463.00;2331817;56;27095;-64
2021/06/08 00:53:07;;;;;;;7.23;5.00;;;11.90;99.90;;;12.01;100.00;95464.00;2187770;58;26865;-64
2021/06/08 00:55:53;;;;;;;7.00;4.43;;;11.90;99.90;;;12.01;100.00;95465.00;2401264;56;27378;-64
2021/06/08 00:58:40;;;;;;;7.40;4.67;;;12.00;99.90;;;12.29;100.00;95465.00;2227815;55;26875;-64
2021/06/08 01:01:27;;;;;;;7.77;4.60;;;11.90;99.90;;;12.05;100.00;95466.00;2164660;56;26561;-64
2021/06/08 01:04:14;;;;;;;4.30;3.90;;;11.90;99.90;;;12.17;100.00;95467.00;2218428;56;27237;-64
2021/06/08 01:07:00;;;;;;;8.60;4.30;;;11.80;99.90;;;12.03;100.00;95462.00;2163910;56;26592;-64
2021/06/08 01:09:46;;;;;;;5.23;4.33;;;11.70;99.90;;;11.91;100.00;95464.00;2216384;56;26966;-64
2021/06/08 01:12:33;;;;;;;6.63;4.30;;;11.70;99.90;;;11.89;100.00;95464.00;2375575;56;27284;-64
2021/06/08 01:15:21;;;;;;;8.50;5.40;;;11.70;99.90;;;11.86;100.00;95466.00;2375508;56;26764;-64
2021/06/08 01:21:05;;;;;;;10.03;5.17;;;11.70;99.90;;;11.98;100.00;95430.00;2344243;54;34694;-64
2021/06/08 01:23:52;;;;;;;29.43;6.57;;;11.60;99.90;;;11.87;100.00;95457.00;2147332;58;26870;-64
2021/06/08 01:26:39;;;;;;;11.57;5.53;;;11.70;99.90;;;12.00;100.00;95456.00;2346346;58;26640;-64
2021/06/08 01:29:27;;;;;;;25.30;5.60;;;11.70;99.90;;;11.93;100.00;95451.00;2346384;58;26608;-64
2021/06/08 01:32:15;;;;;;;24.57;5.93;;;11.60;99.90;;;11.85;100.00;95454.00;2347431;58;26737;-64
2021/06/08 01:35:01;;;;;;;45.17;5.93;;;11.60;99.90;;;11.84;100.00;95455.00;2136269;58;26692;-64
2021/06/08 01:37:48;;;;;;;82.90;9.00;;;11.60;99.90;;;11.78;100.00;95455.00;2332440;58;26869;-64
2021/06/08 01:43:32;;;;;;;52.93;8.77;;;11.80;99.90;;;12.09;100.00;95434.00;2467678;53;34193;-64
2021/06/08 01:46:20;;;;;;;33.93;8.07;;;11.90;99.90;;;12.15;100.00;95453.00;2194557;56;26830;-64
2021/06/08 01:49:06;;;;;;;24.83;7.70;;;11.90;99.90;;;12.19;100.00;95458.00;2414044;55;26866;-64
2021/06/08 01:52:03;;;;;;;20.27;6.47;;;11.90;99.90;;;12.19;100.00;95468.00;2196305;56;26842;-64
2021/06/08 01:58:07;;;;;;;58.80;7.30;;;12.20;99.90;;;12.63;100.00;95432.00;2479373;52;33461;-64
2021/06/08 02:00:58;;;;;;;23.80;7.00;;;12.10;99.90;;;12.34;100.00;95469.00;2268565;55;27120;-64
2021/06/08 02:03:57;;;;;;;36.27;7.43;;;12.00;99.90;;;12.28;100.00;95473.00;2255798;55;26831;-64
2021/06/08 02:09:54;;;;;;;20.43;7.13;;;12.30;99.90;;;12.74;100.00;95446.00;2256955;55;33713;-64
2021/06/08 02:12:42;;;;;;;100.60;8.40;;;12.20;99.90;;;12.55;100.00;95473.00;2193949;56;26769;-64
2021/06/08 02:15:37;;;;;;;78.07;8.07;;;12.20;99.90;;;12.53;100.00;95465.00;2188295;55;26261;-65
2021/06/08 02:18:26;;;;;;;37.90;7.13;;;12.20;99.90;;;12.44;100.00;95461.00;2250289;55;27391;-64
2021/06/08 02:24:12;;;;;;;110.13;8.33;;;12.30;99.90;;;12.67;100.00;95444.00;2233308;53;34362;-65
2021/06/08 02:27:05;;;;;;;36.13;6.77;;;12.20;99.90;;;12.53;100.00;95467.00;2190445;55;26114;-64
2021/06/08 02:29:54;;;;;;;31.60;5.57;;;12.30;99.90;;;12.68;100.00;95463.00;2389192;55;26696;-64
2021/06/08 02:32:41;;;;;;;17.10;5.80;;;12.40;99.90;;;12.91;100.00;95480.00;2166775;56;27230;-64
2021/06/08 02:35:29;;;;;;;18.80;5.47;;;12.40;99.90;;;12.65;100.00;95474.00;2271185;56;26777;-64
2021/06/08 02:38:16;;;;;;;12.63;5.77;;;12.20;99.90;;;12.57;100.00;95472.00;2263331;55;26833;-64
2021/06/08 02:41:06;;;;;;;30.33;6.10;;;12.20;99.90;;;12.51;100.00;95473.00;2192892;56;26573;-64
2021/06/08 02:43:54;;;;;;;8.90;5.53;;;12.00;99.90;;;12.33;100.00;95478.00;2219898;56;26846;-64
2021/06/08 02:46:41;;;;;;;32.70;6.23;;;12.00;99.90;;;12.28;100.00;95478.00;2332907;55;26700;-64
2021/06/08 02:49:28;;;;;;;29.10;7.13;;;12.00;99.90;;;12.31;100.00;95477.00;2187565;56;26732;-64
2021/06/08 02:52:17;;;;;;;14.60;5.97;;;12.10;99.90;;;12.34;100.00;95482.00;2405454;55;26767;-64
2021/06/08 02:55:07;;;;;;;38.70;7.50;;;12.00;99.90;;;12.27;100.00;95478.00;2184639;56;27097;-64
2021/06/08 02:57:57;;;;;;;25.60;7.03;;;12.00;99.90;;;12.27;100.00;95478.00;2330288;55;26521;-64
2021/06/08 03:00:44;;;;;;;17.37;6.87;;;12.10;99.90;;;12.30;100.00;95486.00;2224238;55;26173;-63
2021/06/08 03:03:35;;;;;;;21.03;7.00;;;12.00;99.90;;;12.30;100.00;95483.00;2194054;56;26189;-63
2021/06/08 03:06:26;;;;;;;8.97;6.50;;;12.00;99.90;;;12.30;100.00;95483.00;2227968;55;26133;-63
2021/06/08 03:09:16;;;;;;;11.10;6.07;;;12.10;99.90;;;12.39;100.00;95490.00;2194119;56;26165;-63
2021/06/08 03:12:08;;;;;;;7.03;6.07;;;12.10;99.90;;;12.49;100.00;95490.00;2214550;56;26766;-63
2021/06/08 03:17:54;;;;;;;7.73;6.30;;;12.30;99.90;;;12.73;100.00;95467.00;2386686;55;34868;-63
2021/06/08 03:20:51;;;;;;;10.77;6.97;;;12.20;99.90;;;12.54;100.00;95487.00;2203199;57;26781;-63
2021/06/08 03:26:42;;;;;;;7.33;6.53;;;12.30;99.90;;;12.67;100.00;95459.00;2189493;55;33907;-63
2021/06/08 03:29:31;;;;;;;7.20;6.10;;;12.20;99.90;;;12.53;100.00;95486.00;2140185;57;27315;-63
2021/06/08 03:32:19;;;;;;;10.33;6.20;;;12.30;99.90;;;12.63;100.00;95481.00;2134547;57;26877;-63
2021/06/08 03:35:10;;;;;;;6.90;5.87;;;12.20;99.90;;;12.56;100.00;95496.00;2127175;57;26341;-63
2021/06/08 03:37:57;;;;;;;7.97;5.90;;;12.40;99.90;;;12.91;100.00;95501.00;2181676;56;26813;-63
2021/06/08 03:40:45;;;;;;;7.33;6.13;;;12.60;99.90;;;13.00;100.00;95501.00;2161883;56;26830;-63
2021/06/08 03:43:32;;;;;;;9.20;6.97;;;12.40;99.90;;;12.75;100.00;95490.00;2367328;56;27174;-63
2021/06/08 03:46:19;;;;;;;8.40;6.40;;;12.30;99.90;;;12.71;100.00;95495.00;2175396;57;27703;-63
2021/06/08 03:49:05;;;;;;;5.70;5.20;;;12.40;99.90;;;12.77;100.00;95494.00;2158219;57;26733;-63
2021/06/08 03:51:56;;;;;;;6.13;5.53;;;12.60;99.90;;;13.13;100.00;95499.00;2157937;58;27211;-63
2021/06/08 03:54:42;;;;;;;6.03;5.43;;;12.70;99.90;;;13.06;100.00;95491.00;2202142;56;26998;-63
2021/06/08 03:57:32;;;;;;;5.63;5.13;;;12.90;99.90;;;13.36;100.00;95490.00;2187703;57;27025;-63
2021/06/08 04:00:20;;;;;;;5.80;5.30;;;12.80;99.90;;;13.09;100.00;95479.00;2201578;56;26721;-63
2021/06/08 04:03:10;;;;;;;6.30;5.40;;;12.70;99.90;;;13.07;100.00;95481.00;2174281;56;26315;-63
2021/06/08 04:05:57;;;;;;;8.83;5.13;;;12.70;99.90;;;13.02;100.00;95487.00;2184176;56;27481;-63
2021/06/08 04:11:47;;;;;;;7.17;5.40;;;12.50;99.90;;;12.96;100.00;95466.00;2345203;56;34966;-63
2021/06/08 04:14:35;;;;;;;5.80;5.30;;;12.50;99.90;;;12.87;100.00;95489.00;2153894;57;26634;-63
2021/06/08 04:17:22;;;;;;;5.63;5.13;;;12.50;99.90;;;12.89;100.00;95490.00;2308305;57;26964;-63
2021/06/08 04:20:12;;;;;;;6.37;5.63;;;12.60;99.90;;;12.96;100.00;95503.00;2155290;58;26142;-63
2021/06/08 04:23:01;;;;;;;7.97;5.37;;;12.60;99.90;;;13.00;100.00;95496.00;2183772;56;26245;-64
2021/06/08 04:25:47;;;;;;;4.93;4.53;;;12.70;99.90;;;13.21;100.00;95501.00;2225603;56;26945;-63
2021/06/08 04:28:34;;;;;;;5.70;5.17;;;13.00;99.90;;;13.46;100.00;95506.00;2246960;55;26742;-63
2021/06/08 04:34:21;;;;;;;7.07;6.37;;;12.90;99.90;;;13.37;100.00;95459.00;2298396;57;34092;-63
2021/06/08 04:40:09;;;;;;;7.27;6.63;;;13.20;99.90;;;13.66;100.00;95461.00;2401757;55;33784;-63
2021/06/08 04:42:55;;;;;;;7.77;7.07;;;13.00;99.90;;;13.48;100.00;95473.00;2189025;56;26729;-63
2021/06/08 04:45:42;;;;;;;8.23;7.43;;;13.10;99.90;;;13.64;100.00;95476.00;2251490;56;26677;-63
2021/06/08 04:48:28;;;;;;;8.07;7.00;;;13.20;99.90;;;13.76;100.00;95478.00;2192945;56;26733;-63
2021/06/08 04:51:15;;;;;;;9.13;7.70;;;13.20;99.90;;;13.69;100.00;95477.00;2200666;56;26750;-63
2021/06/08 04:54:01;;;;;;;8.50;7.60;;;13.20;99.90;;;13.57;100.00;95473.00;2236447;56;26595;-63
2021/06/08 04:56:47;;;;;;;8.37;7.43;;;13.40;99.90;;;13.92;100.00;95480.00;2191950;56;26697;-63
2021/06/08 05:02:39;;;;;;;9.17;8.27;;;13.40;99.90;;;13.85;100.00;95453.00;2160104;56;35304;-62
2021/06/08 05:05:29;;;;;;;9.13;7.40;;;13.40;99.90;;;13.80;100.00;95473.00;2127705;57;27053;-63
2021/06/08 05:08:20;;;;;;;9.47;7.73;;;13.50;99.90;;;13.84;100.00;95481.00;2335361;57;27238;-63
2021/06/08 05:11:13;;;;;;;9.20;8.30;;;13.50;99.90;;;13.88;100.00;95482.00;2190875;57;26812;-62
2021/06/08 05:14:02;;;;;;;8.70;7.70;;;13.50;99.90;;;13.90;100.00;95475.00;2336716;57;26772;-63
2021/06/08 05:16:51;;;;;;;8.23;7.03;;;13.60;99.90;;;14.03;100.00;95480.00;2279671;57;27153;-63
2021/06/08 05:19:39;;;;;;;7.93;7.23;;;13.60;99.90;;;14.12;100.00;95486.00;2133148;58;27360;-63
2021/06/08 05:25:25;;;;;;;7.95;7.15;;;13.70;99.90;;;14.27;100.00;95463.00;2228351;55;33836;-62
2021/06/08 05:28:15;;;;;;;7.87;7.13;;;13.80;99.90;;;14.23;100.00;95473.00;2246219;56;26634;-62
2021/06/08 05:31:01;;;;;;;7.90;7.10;;;13.80;99.90;;;14.17;100.00;95472.00;2160277;57;27068;-63
2021/06/08 05:33:48;;;;;;;7.47;6.78;;;13.70;99.90;;;14.23;100.00;95480.00;2165137;57;26603;-64
2021/06/08 05:36:37;;;;;;;7.20;6.57;;;13.80;99.90;;;14.28;100.00;95481.00;2164447;57;26762;-63
2021/06/08 05:39:34;;;;;;;7.10;6.50;;;13.80;99.90;;;14.35;100.00;95476.00;2299197;56;26757;-63
2021/06/08 05:42:20;;;;;;;7.03;6.43;;;13.80;99.90;;;14.37;100.00;95487.00;2179616;56;26720;-63
2021/06/08 05:45:09;;;;;;;7.20;6.50;;;13.90;99.90;;;14.64;100.00;95486.00;2164962;57;26858;-63
2021/06/08 05:47:56;;;;;;;7.15;6.43;;;13.70;99.90;;;14.36;100.00;95477.00;2275936;56;26218;-63
2021/06/08 05:50:42;;;;;;;6.97;6.28;;;14.00;99.90;;;14.76;100.00;95481.00;2187867;57;26575;-63
2021/06/08 05:53:30;;;;;;;6.03;5.53;;;14.30;99.90;;;14.86;100.00;95472.00;2367081;55;26679;-63
2021/06/08 05:56:18;;;;;;;6.97;6.27;;;14.30;99.90;;;15.01;100.00;95470.00;2192869;57;26763;-62
2021/06/08 05:59:05;;;;;;;5.93;5.43;;;14.60;99.90;;;15.22;100.00;95459.00;2411029;56;26651;-63
2021/06/08 06:01:52;;;;;;;6.50;5.90;;;14.80;99.90;;;15.42;100.00;95457.00;2377897;56;27190;-64
2021/06/08 06:04:41;;;;;;;6.00;5.40;;;14.70;99.90;;;15.44;100.00;95462.00;2193482;57;26539;-63
2021/06/08 06:07:30;;;;;;;6.05;5.43;;;14.70;99.90;;;15.45;100.00;95472.00;2193799;57;26700;-63
2021/06/08 06:10:16;;;;;;;5.97;5.30;;;14.60;99.90;;;15.31;100.00;95465.00;2192766;57;26945;-63
2021/06/08 06:13:04;;;;;;;5.87;5.37;;;14.80;99.90;;;15.58;100.00;95466.00;2411254;55;26239;-63
2021/06/08 06:15:52;;;;;;;6.47;5.73;;;14.90;99.90;;;15.78;100.00;95465.00;2411598;56;26649;-63
2021/06/08 06:18:41;;;;;;;6.47;5.55;;;14.70;99.90;;;15.50;100.00;95470.00;2409842;56;26624;-62
2021/06/08 06:21:28;;;;;;;5.85;5.35;;;14.60;99.90;;;15.44;100.00;95468.00;2193597;57;26683;-63
2021/06/08 06:24:17;;;;;;;6.93;5.15;;;15.10;99.90;;;16.31;100.00;95462.00;2193794;57;27356;-62
2021/06/08 06:27:06;;;;;;;6.03;5.35;;;15.20;99.90;;;16.17;100.00;95451.00;2201152;56;27125;-63
2021/06/08 06:29:54;;;;;;;5.40;5.00;;;15.40;99.90;;;16.74;100.00;95446.00;2181058;56;26932;-63
2021/06/08 06:32:40;;;;;;;5.63;4.70;;;15.20;99.90;;;16.37;100.00;95451.00;2227198;56;26681;-63
2021/06/08 06:38:24;;;;;;;4.72;4.28;;;15.00;99.90;;;17.68;100.00;95427.00;2325546;55;33867;-63
2021/06/08 06:44:08;;;;;;;4.57;3.60;;;16.80;99.90;;;20.26;100.00;95414.00;2261030;55;34626;-63
2021/06/08 06:46:54;;;;;;;4.55;3.83;;;17.60;99.90;;;19.47;100.00;95422.00;2205635;56;27294;-63
2021/06/08 06:52:39;;;;;;;4.20;3.30;;;19.40;99.90;;;23.08;100.00;95413.00;2351729;54;33734;-63
2021/06/08 06:55:28;;;;;;;3.72;3.25;;;19.80;99.90;;;23.47;100.00;95420.00;2191684;57;27406;-63
2021/06/08 06:58:18;;;;;;;4.22;3.83;;;20.80;99.90;;;23.92;100.00;95419.00;2206049;56;27078;-63
2021/06/08 07:01:05;;;;;;;4.22;3.87;;;20.20;99.90;;;23.54;100.00;95421.00;2263254;55;26178;-63
2021/06/08 07:03:54;;;;;;;8.23;4.25;;;20.00;99.90;;;22.54;100.00;95410.00;2215942;55;26156;-63
2021/06/08 07:06:42;;;;;;;4.68;4.28;;;20.60;99.90;;;24.21;100.00;95418.00;2214527;55;27152;-63
2021/06/08 07:09:28;;;;;;;5.43;4.65;;;20.90;99.90;;;23.31;100.00;95411.00;2216300;55;26762;-63
2021/06/08 07:12:18;;;;;;;4.97;4.55;;;19.80;99.90;;;22.50;100.00;95416.00;2217239;55;26200;-63
2021/06/08 07:15:09;;;;;;;5.90;5.40;;;19.20;99.90;;;22.06;100.00;95415.00;2216745;55;27259;-63
2021/06/08 07:17:56;;;;;;;5.65;4.97;;;18.40;99.90;;;20.98;100.00;95412.00;2247185;55;26657;-62
2021/06/08 07:20:43;;;;;;;7.07;6.35;;;19.80;99.90;;;23.38;100.00;95417.00;2284414;55;26699;-63
2021/06/08 07:23:30;;;;;;;6.12;5.62;;;18.80;99.90;;;21.36;100.00;95420.00;2199135;55;26191;-63
2021/06/08 07:26:18;;;;;;;6.30;5.70;;;19.80;99.90;;;23.07;100.00;95406.00;2214991;56;26745;-62
2021/06/08 07:29:07;;;;;;;6.60;5.95;;;20.40;99.90;;;22.68;100.00;95406.00;2174663;56;27504;-63
2021/06/08 07:35:02;;;;;;;6.57;6.03;;;21.80;99.90;;;23.06;100.00;95408.00;2183642;55;35130;-63
2021/06/08 07:37:52;;;;;;;8.43;6.70;;;20.40;99.90;;;23.02;100.00;95406.00;2156150;55;26873;-63
2021/06/08 07:40:45;;;;;;;10.48;7.47;;;20.30;99.90;;;23.30;100.00;95409.00;2148608;55;26725;-62
2021/06/08 07:46:38;;;;;;;10.23;9.23;;;19.80;99.90;;;21.23;100.00;95411.00;2395057;55;33713;-63
2021/06/08 07:49:26;;;;;;;9.35;8.48;;;18.30;99.90;;;19.89;100.00;95417.00;2263215;55;26805;-63
2021/06/08 07:52:16;;;;;;;12.37;8.63;;;18.80;99.90;;;20.96;100.00;95409.00;2259218;55;26648;-63
2021/06/08 07:55:05;;;;;;;9.52;8.57;;;18.50;99.90;;;20.16;100.00;95419.00;2225664;55;26557;-63
2021/06/08 07:57:52;;;;;;;10.13;9.20;;;18.40;99.90;;;20.30;100.00;95419.00;2178458;56;26761;-63
2021/06/08 08:00:38;;;;;;;10.45;9.45;;;18.70;99.90;;;20.05;100.00;95423.00;2280218;55;26819;-63
2021/06/08 08:03:26;;;;;;;10.77;9.70;;;18.30;99.90;;;19.58;100.00;95424.00;2161588;55;26717;-63
2021/06/08 08:06:15;;;;;;;11.70;9.93;;;18.60;99.90;;;20.06;100.00;95424.00;2184711;56;27217;-63
2021/06/08 08:09:03;;;;;;;10.23;9.23;;;19.40;99.90;;;21.77;100.00;95418.00;2251935;56;26866;-63
2021/06/08 08:11:53;;;;;;;10.88;9.70;;;20.30;99.90;;;23.41;100.00;95416.00;2211933;56;27211;-63
2021/06/08 08:14:41;;;;;;;10.10;9.05;;;19.90;99.90;;;22.33;100.00;95422.00;2168492;56;26650;-63
2021/06/08 08:17:28;;;;;;;10.75;9.65;;;19.80;99.90;;;22.42;100.00;95418.00;2172872;56;26753;-63
2021/06/08 08:20:20;;;;;;;10.60;9.27;;;21.20;99.90;;;23.62;100.00;95417.00;2271515;55;26719;-63
2021/06/08 08:23:06;;;;;;;11.25;10.15;;;20.50;99.90;;;23.39;100.00;95426.00;2205602;55;26813;-63
2021/06/08 08:25:54;;;;;;;10.30;9.00;;;21.30;99.90;;;24.09;100.00;95424.00;2183650;56;26627;-63
2021/06/08 08:28:43;;;;;;;9.48;8.48;;;21.90;99.90;;;25.70;100.00;95419.00;2232169;55;27280;-65
2021/06/08 08:31:31;;;;;;;10.85;9.75;;;23.80;99.90;;;27.30;100.00;95414.00;2228399;55;27270;-63
2021/06/08 08:34:18;;;;;;;10.10;8.95;;;24.40;99.90;;;26.95;100.00;95419.00;2245963;55;26711;-63
2021/06/08 08:37:05;;;;;;;10.02;9.00;;;24.70;99.90;;;26.93;100.00;95410.00;2202512;55;26601;-63
2021/06/08 08:39:51;;;;;;;11.63;10.52;;;23.30;99.90;;;25.14;100.00;95415.00;2206215;56;26278;-63
2021/06/08 08:45:35;;;;;;;10.57;9.48;;;21.10;99.90;;;23.01;100.00;95421.00;2288592;56;33292;-63
2021/06/08 08:48:22;;;;;;;11.88;10.70;;;21.60;99.90;;;23.31;100.00;95424.00;2136342;59;26803;-64
2021/06/08 08:54:05;;;;;;;11.55;10.52;;;20.50;99.90;;;21.68;100.00;95411.00;2304305;55;33556;-65
2021/06/08 08:59:49;;;;;;;11.95;10.85;;;19.90;99.90;;;21.34;100.00;95417.00;2370291;54;34328;-63
2021/06/08 09:02:36;;;;;;;12.48;11.38;;;19.30;99.90;;;20.79;100.00;95418.00;2339077;55;26153;-63
2021/06/08 09:05:24;;;;;;;12.40;11.30;;;19.00;99.90;;;20.47;100.00;95418.00;2287154;54;26637;-63
2021/06/08 09:08:11;;;;;;;13.50;11.57;;;19.30;99.90;;;20.83;100.00;95415.00;2217166;55;26637;-63
2021/06/08 09:10:59;;;;;;;12.77;10.88;;;19.80;99.90;;;21.13;100.00;95416.00;2274481;54;27270;-63
2021/06/08 09:13:46;;;;;;;10.98;9.88;;;20.10;99.90;;;21.53;100.00;95411.00;2213252;54;26623;-63
2021/06/08 09:16:33;;;;;;;13.95;10.93;;;21.30;99.90;;;23.09;100.00;95408.00;2238855;55;27284;-63
2021/06/08 09:19:20;;;;;;;12.02;10.82;;;20.90;99.90;;;22.09;100.00;95412.00;2266137;54;27021;-64
2021/06/08 09:22:10;;;;;;;12.13;11.00;;;21.80;99.90;;;24.36;100.00;95409.00;2223808;55;26062;-63
2021/06/08 09:24:56;;;;;;;10.55;9.10;;;21.60;99.90;;;24.28;100.00;95411.00;2218767;55;27374;-63
2021/06/08 09:27:43;;;;;;;10.55;9.55;;;24.00;99.90;;;27.87;100.00;95404.00;2216698;55;26662;-63
2021/06/08 09:30:36;;;;;;;10.98;8.60;;;26.20;99.90;;;28.80;100.00;95408.00;2217291;54;26737;-61
2021/06/08 09:33:25;;;;;;;9.80;8.80;;;26.00;99.90;;;28.73;99.44;95405.00;2210159;55;27087;-63
2021/06/08 09:36:15;;;;;;;8.77;7.95;;;27.60;99.90;;;29.67;88.88;95406.00;2189218;56;26763;-63
2021/06/08 09:39:05;;;;;;;9.10;8.30;;;26.60;99.90;;;28.09;100.00;95402.00;2195556;56;27233;-64
2021/06/08 09:41:51;;;;;;;8.98;8.18;;;25.40;99.90;;;26.88;100.00;95402.00;2202228;55;26586;-64
2021/06/08 09:44:37;;;;;;;10.98;9.85;;;23.90;99.90;;;25.58;100.00;95406.00;2208977;56;26240;-63
2021/06/08 09:47:29;;;;;;;11.00;9.90;;;23.40;99.90;;;26.15;100.00;95403.00;2189175;56;27288;-63
2021/06/08 09:50:37;;;;;;;12.25;11.10;;;23.80;99.90;;;26.44;100.00;95398.00;2193437;56;26688;-62
2021/06/08 09:53:26;;;;;;;11.85;10.63;;;21.90;99.90;;;23.57;100.00;95407.00;2265335;55;26721;-63
2021/06/08 09:59:10;;;;;;;12.37;11.18;;;21.70;99.90;;;23.21;100.00;95405.00;2194012;56;34081;-63
2021/06/08 10:01:56;;;;;;;11.68;9.95;;;22.10;99.90;;;23.26;100.00;95408.00;2202694;58;26151;-63
2021/06/08 10:04:42;;;;;;;12.00;10.80;;;21.90;99.90;;;23.21;100.00;95405.00;2298716;56;27334;-64
2021/06/08 10:07:30;;;;;;;12.05;10.98;;;21.90;99.90;;;23.24;100.00;95405.00;2269640;57;27299;-63
2021/06/08 10:10:18;;;;;;;12.75;11.57;;;21.10;99.90;;;22.58;100.00;95398.00;2127342;57;26786;-63
2021/06/08 10:13:07;;;;;;;11.88;10.65;;;22.10;99.90;;;23.85;100.00;95405.00;2126849;59;26757;-64
2021/06/08 10:15:57;;;;;;;12.40;11.05;;;22.60;99.90;;;24.39;100.00;95405.00;2144317;58;26318;-63
2021/06/08 10:18:46;;;;;;;12.07;10.98;;;23.90;99.90;;;26.88;100.00;95407.00;2342251;57;27242;-64
2021/06/08 10:24:39;;;;;;;10.55;9.57;;;24.20;99.90;;;26.89;100.00;95389.00;2442489;54;34105;-64
2021/06/08 10:27:26;;;;;;;9.75;8.85;;;23.20;99.90;;;25.26;100.00;95395.00;2221468;54;26617;-63
2021/06/08 10:30:14;;;;;;;10.80;9.80;;;22.70;99.90;;;24.75;100.00;95409.00;2443436;54;27011;-63
2021/06/08 10:33:01;;;;;;;11.52;10.43;;;22.30;99.90;;;24.27;100.00;95391.00;2205579;54;26573;-63
2021/06/08 10:35:48;;;;;;;10.77;9.88;;;22.10;99.90;;;24.04;100.00;95396.00;2217498;53;26694;-63
2021/06/08 10:38:34;;;;;;;10.60;9.60;;;23.90;99.90;;;26.89;100.00;95392.00;2380916;54;27328;-63
2021/06/08 10:41:21;;;;;;;11.55;10.10;;;24.20;99.90;;;26.65;100.00;95384.00;2245795;55;26713;-64
2021/06/08 10:44:16;;;;;;;10.20;8.88;;;24.20;99.90;;;26.72;100.00;95385.00;2479410;54;26738;-61
2021/06/08 10:47:08;;;;;;;9.05;8.10;;;23.90;99.90;;;26.42;100.00;95382.00;2269576;54;27010;-61
2021/06/08 10:49:55;;;;;;;8.40;7.70;;;24.20;99.90;;;26.78;100.00;95375.00;2245265;55;26946;-61
2021/06/08 10:52:47;;;;;;;8.73;8.00;;;26.50;99.90;;;29.37;100.00;95380.00;2245425;55;25128;-61
2021/06/08 10:55:41;;;;;;;10.77;7.50;;;27.10;99.90;;;29.76;85.76;95364.00;2245805;55;26757;-61
2021/06/08 10:58:48;;;;;;;7.65;7.05;;;24.80;99.90;;;26.40;100.00;95373.00;2251979;54;27516;-61
2021/06/08 11:02:04;;;;;;;7.28;6.68;;;25.60;99.90;;;28.48;100.00;95374.00;2262281;54;27338;-62
2021/06/08 11:07:53;;;;;;;8.80;5.95;;;27.00;99.90;;;31.43;68.30;95357.00;2265837;55;34569;-61
2021/06/08 11:10:58;;;;;;;5.90;5.40;;;26.10;99.90;;;28.32;92.30;95356.00;2167728;56;26682;-61
2021/06/08 11:13:51;;;;;;;5.72;5.28;;;26.90;99.90;;;30.07;86.31;95354.00;2377590;56;27335;-61
2021/06/08 11:16:38;;;;;;;5.43;4.90;;;25.80;99.90;;;27.62;100.00;95356.00;2170421;56;26799;-61
2021/06/08 11:22:58;;;;;;;5.97;5.03;;;25.20;99.90;;;27.37;100.00;95354.00;2333635;54;32116;-64
2021/06/08 11:25:54;;;;;;;5.87;5.35;;;25.40;99.90;;;27.32;100.00;95350.00;2207855;55;26884;-62
2021/06/08 11:28:45;;;;;;;5.57;4.78;;;27.30;99.90;;;30.93;70.13;95347.00;2209732;56;26777;-62
2021/06/08 11:35:09;;;;;;;5.18;4.68;;;29.80;99.90;;;30.56;65.88;95337.00;2280827;55;33318;-64
2021/06/08 11:38:01;;;;;;;4.82;4.43;;;30.40;99.90;;;32.77;52.42;95337.00;2192568;56;27250;-62
2021/06/08 11:40:53;;;;;;;5.50;4.85;;;28.00;99.90;;;29.23;88.07;95331.00;2247582;55;27386;-62
2021/06/08 11:43:58;;;;;;;5.15;4.65;;;26.90;99.90;;;28.47;97.28;95333.00;2238495;55;25671;-62
2021/06/08 11:47:10;;;;;;;5.45;4.95;;;26.30;99.90;;;28.21;100.00;95319.00;2218739;55;26860;-62
2021/06/08 11:50:00;;;;;;;5.47;5.00;;;25.20;99.90;;;26.58;100.00;95316.00;2191423;56;26690;-61
2021/06/08 11:53:07;;;;;;;5.62;5.12;;;24.10;99.90;;;25.27;100.00;95315.00;2191562;56;26619;-62
2021/06/08 11:56:07;;;;;;;5.72;5.03;;;24.80;99.90;;;26.95;100.00;95311.00;2206792;55;26757;-62
2021/06/08 11:59:07;;;;;;;6.15;4.72;;;28.50;99.90;;;29.96;65.74;95306.00;2199029;56;25645;-62
2021/06/08 12:01:58;;;;;;;6.05;4.68;;;26.40;99.90;;;27.26;93.93;95302.00;2196073;56;26673;-63
2021/06/08 12:05:13;;;;;;;7.15;4.25;;;25.00;99.90;;;26.18;100.00;95299.00;2188572;56;26731;-62
2021/06/08 12:08:02;;;;;;;5.12;4.62;;;26.10;99.90;;;28.26;100.00;95288.00;2194602;56;25806;-62
2021/06/08 12:10:50;;;;;;;4.95;4.40;;;26.70;99.90;;;28.60;96.60;95286.00;2209333;56;25166;-61
2021/06/08 12:19:31;;;;;;;4.32;3.92;;;24.70;99.90;;;28.19;100.00;95280.00;2449011;53;33941;-63
2021/06/08 12:25:20;;;;;;;5.45;4.70;;;25.00;99.90;;;26.01;100.00;95275.00;2325729;55;34094;-63
2021/06/08 12:28:12;;;;;;;4.97;4.28;;;24.10;99.90;;;25.15;100.00;95280.00;2416393;55;26818;-63
2021/06/08 12:31:12;;;;;;;4.20;3.80;;;24.40;99.90;;;25.53;100.00;95276.00;2282353;54;27135;-63
2021/06/08 12:34:00;;;;;;;4.37;3.95;;;25.20;99.90;;;26.62;96.94;95269.00;2234708;54;26244;-63
2021/06/08 12:36:49;;;;;;;4.55;4.15;;;25.40;99.90;;;27.12;100.00;95266.00;2239644;54;26136;-63
2021/06/08 12:39:35;;;;;;;4.65;4.15;;;25.40;99.90;;;26.46;94.63;95264.00;2236057;54;27642;-63
2021/06/08 12:42:23;;;;;;;5.82;4.80;;;24.60;99.90;;;24.91;89.13;95268.00;2267196;54;27023;-63
2021/06/08 12:45:11;;;;;;;4.55;4.10;;;24.30;99.90;;;24.89;100.00;95260.00;2235340;54;27321;-62
2021/06/08 12:47:57;;;;;;;4.37;3.97;;;24.40;99.90;;;25.30;78.90;95255.00;2246281;54;27045;-63
2021/06/08 12:50:43;;;;;;;7.18;4.07;;;24.90;99.90;;;26.30;81.60;95249.00;2273178;54;26821;-63
2021/06/08 12:53:30;;;;;;;5.20;4.30;;;24.80;99.90;;;25.72;90.23;95240.00;2277581;54;26966;-63
2021/06/08 12:56:16;;;;;;;6.72;4.00;;;24.70;99.90;;;25.82;100.00;95239.00;2251096;54;26579;-62
2021/06/08 12:59:03;;;;;;;5.53;4.00;;;24.60;99.90;;;25.90;100.00;95244.00;2236246;54;26628;-63
2021/06/08 13:01:52;;;;;;;4.15;3.70;;;24.60;99.90;;;25.54;96.74;95230.00;2275773;54;26515;-64
2021/06/08 13:04:45;;;;;;;6.30;4.22;;;24.40;99.90;;;25.39;96.96;95229.00;2236186;54;26204;-63
2021/06/08 13:07:35;;;;;;;6.65;4.32;;;24.50;99.90;;;25.38;100.00;95228.00;2272824;54;26692;-63
2021/06/08 13:10:24;;;;;;;4.72;4.07;;;24.60;99.90;;;25.75;100.00;95230.00;2261509;54;27276;-63
2021/06/08 13:13:14;;;;;;;4.80;3.97;;;25.10;99.90;;;26.25;94.27;95225.00;2238453;54;26881;-63
2021/06/08 13:19:17;;;;;;;5.00;3.95;;;25.50;99.90;;;26.75;85.01;95214.00;2319041;54;34215;-64